createdAt,value
2023-04-05T00:01:13.653Z,16.67
2023-04-05T00:03:42.974Z,19.33
2023-04-05T00:06:13.098Z,14.55
2023-04-05T00:08:40.186Z,17.58
2023-04-05T00:11:06.888Z,25.08
2023-04-05T00:13:33.572Z,15.20
2023-04-05T00:16:01.977Z,25.55
2023-04-05T00:18:34.057Z,19.85
2023-04-05T00:21:01.276Z,22.08
2023-04-05T00:23:28.247Z,19.67
2023-04-05T00:25:54.900Z,26.30
2023-04-05T00:28:22.994Z,21.30
2023-04-05T00:30:52.356Z,24.10
2023-04-05T00:33:18.952Z,19.60
2023-04-05T00:35:45.538Z,25.75
2023-04-05T00:38:12.136Z,22.10
2023-04-05T00:40:38.794Z,18.50
2023-04-05T00:43:05.435Z,19.08
2023-04-05T00:45:32.302Z,21.67
2023-04-05T00:47:59.018Z,18.73
2023-04-05T00:50:30.883Z,16.65
2023-04-05T00:52:58.647Z,18.83
2023-04-05T00:55:26.926Z,17.73
2023-04-05T00:57:55.875Z,21.00
2023-04-05T01:00:23.026Z,25.73
2023-04-05T01:02:53.117Z,20.52
2023-04-05T01:05:43.075Z,20.17
2023-04-05T01:08:37.440Z,20.20
2023-04-05T01:11:06.732Z,16.67
2023-04-05T01:13:33.554Z,20.48
2023-04-05T01:16:00.401Z,16.63
2023-04-05T01:18:27.623Z,22.75
2023-04-05T01:21:10.557Z,20.80
2023-04-05T01:23:53.172Z,28.48
2023-04-05T01:27:14.244Z,20.25
2023-04-05T01:30:12.185Z,21.33
2023-04-05T01:33:08.817Z,19.25
2023-04-05T01:36:01.967Z,19.17
2023-04-05T01:38:30.197Z,21.52
2023-04-05T01:40:56.855Z,22.75
2023-04-05T01:43:23.496Z,24.08
2023-04-05T01:45:50.301Z,23.40
2023-04-05T01:48:16.918Z,21.48
2023-04-05T01:50:43.684Z,23.58
2023-04-05T01:53:10.775Z,19.60
2023-04-05T01:55:37.465Z,25.95
2023-04-05T01:58:04.173Z,21.10
2023-04-05T02:00:30.993Z,27.98
2023-04-05T02:02:58.044Z,25.52
2023-04-05T02:05:24.751Z,21.63
2023-04-05T02:07:51.593Z,23.00
2023-04-05T02:10:19.237Z,19.52
2023-04-05T02:12:46.191Z,19.00
2023-04-05T02:15:12.794Z,20.08
2023-04-05T02:17:39.916Z,17.33
2023-04-05T02:20:12.385Z,20.63
2023-04-05T02:22:40.023Z,21.55
2023-04-05T02:25:10.635Z,27.73
2023-04-05T02:27:37.273Z,25.77
2023-04-05T02:30:04.274Z,29.63
2023-04-05T02:32:31.977Z,26.65
2023-04-05T02:34:58.741Z,27.17
2023-04-05T02:37:27.051Z,27.00
2023-04-05T02:39:54.497Z,26.70
2023-04-05T02:42:21.303Z,25.13
2023-04-05T02:44:48.035Z,26.50
2023-04-05T02:47:21.515Z,28.17
2023-04-05T02:49:48.840Z,25.52
2023-04-05T02:52:16.175Z,24.63
2023-04-05T02:54:43.901Z,25.20
2023-04-05T02:57:11.644Z,26.50
2023-04-05T02:59:39.146Z,25.85
2023-04-05T03:02:07.196Z,25.25
2023-04-05T03:04:37.002Z,22.35
2023-04-05T03:07:04.872Z,22.15
2023-04-05T03:09:34.714Z,25.90
2023-04-05T03:12:03.602Z,25.48
2023-04-05T03:14:30.860Z,28.45
2023-04-05T03:16:57.863Z,29.63
2023-04-05T03:19:26.011Z,23.73
2023-04-05T03:21:53.822Z,26.45
2023-04-05T03:24:20.688Z,31.75
2023-04-05T03:26:48.158Z,23.38
2023-04-05T03:29:15.695Z,25.52
2023-04-05T03:31:42.541Z,26.05
2023-04-05T03:34:09.231Z,22.35
2023-04-05T03:36:41.998Z,23.45
2023-04-05T03:39:13.505Z,19.38
2023-04-05T03:41:41.102Z,23.45
2023-04-05T03:44:08.779Z,26.63
2023-04-05T03:46:38.024Z,21.70
2023-04-05T03:49:04.839Z,29.75
2023-04-05T03:51:32.659Z,24.25
2023-04-05T03:53:59.475Z,25.00
2023-04-05T03:56:27.111Z,24.70
2023-04-05T03:58:54.063Z,30.13
2023-04-05T04:01:20.811Z,28.48
2023-04-05T04:03:47.516Z,29.23
2023-04-05T04:06:14.978Z,25.00
2023-04-05T04:08:42.420Z,23.60
2023-04-05T04:11:09.107Z,27.13
2023-04-05T04:13:35.889Z,26.50
2023-04-05T04:16:03.755Z,26.80
2023-04-05T04:18:30.531Z,27.73
2023-04-05T04:20:58.625Z,27.15
2023-04-05T04:23:27.174Z,25.20
2023-04-05T04:25:54.636Z,23.67
2023-04-05T04:28:21.584Z,24.20
2023-04-05T04:30:48.249Z,32.58
2023-04-05T04:33:14.969Z,24.75
2023-04-05T04:35:42.483Z,26.33
2023-04-05T04:38:09.593Z,28.35
2023-04-05T04:40:41.444Z,26.45
2023-04-05T04:43:19.001Z,31.20
2023-04-05T04:45:48.163Z,28.45
2023-04-05T04:48:16.805Z,33.33
2023-04-05T04:50:44.697Z,28.38
2023-04-05T04:53:13.522Z,21.73
2023-04-05T04:55:43.703Z,27.17
2023-04-05T04:58:13.335Z,31.63
2023-04-05T05:00:42.069Z,32.88
2023-04-05T05:03:11.201Z,29.35
2023-04-05T05:05:44.196Z,27.58
2023-04-05T05:08:11.168Z,33.20
2023-04-05T05:10:37.964Z,23.15
2023-04-05T05:13:04.642Z,28.25
2023-04-05T05:15:31.357Z,29.75
2023-04-05T05:17:58.393Z,34.83
2023-04-05T05:20:28.594Z,31.67
2023-04-05T05:22:55.723Z,29.35
2023-04-05T05:25:22.716Z,27.27
2023-04-05T05:27:51.070Z,29.83
2023-04-05T05:30:18.852Z,36.30
2023-04-05T05:32:45.555Z,29.95
2023-04-05T05:35:12.199Z,33.75
2023-04-05T05:37:39.243Z,27.90
2023-04-05T05:40:06.674Z,27.55
2023-04-05T05:42:34.252Z,33.45
2023-04-05T05:45:05.900Z,30.15
2023-04-05T05:47:32.891Z,35.08
2023-04-05T05:49:59.595Z,30.55
2023-04-05T05:52:26.255Z,29.98
2023-04-05T05:54:52.843Z,31.80
2023-04-05T05:57:20.300Z,37.40
2023-04-05T05:59:46.987Z,27.77
2023-04-05T06:02:14.070Z,38.13
2023-04-05T06:04:40.881Z,33.42
2023-04-05T06:07:07.821Z,41.47
2023-04-05T06:09:35.235Z,37.60
2023-04-05T06:12:02.227Z,37.58
2023-04-05T06:14:29.828Z,34.92
2023-04-05T06:16:56.707Z,32.22
2023-04-05T06:19:23.465Z,35.33
2023-04-05T06:21:50.347Z,41.72
2023-04-05T06:24:16.990Z,37.35
2023-04-05T06:26:43.599Z,44.30
2023-04-05T06:29:10.245Z,38.47
2023-04-05T06:31:37.470Z,45.78
2023-04-05T06:34:04.516Z,45.00
2023-04-05T06:36:32.033Z,44.33
2023-04-05T06:38:59.620Z,42.20
2023-04-05T06:41:27.741Z,43.28
2023-04-05T06:43:54.979Z,40.78
2023-04-05T06:46:21.952Z,41.63
2023-04-05T06:48:49.886Z,44.17
2023-04-05T06:51:16.862Z,40.88
2023-04-05T06:53:43.689Z,45.33
2023-04-05T06:56:11.031Z,51.92
2023-04-05T06:58:37.637Z,45.42
2023-04-05T07:01:04.856Z,40.65
2023-04-05T07:03:32.550Z,42.75
2023-04-05T07:06:00.306Z,36.05
2023-04-05T07:08:28.646Z,43.67
2023-04-05T07:10:55.364Z,37.78
2023-04-05T07:13:23.489Z,40.80
2023-04-05T07:15:51.228Z,30.95
2023-04-05T07:18:19.168Z,39.78
2023-04-05T07:20:52.233Z,38.67
2023-04-05T07:23:19.989Z,33.40
2023-04-05T07:25:47.338Z,34.00
2023-04-05T07:28:14.002Z,31.55
2023-04-05T07:30:40.901Z,34.60
2023-04-05T07:33:07.898Z,37.33
2023-04-05T07:35:34.714Z,36.13
2023-04-05T07:38:01.454Z,24.17
2023-04-05T07:40:28.127Z,33.95
2023-04-05T07:42:54.959Z,29.98
2023-04-05T07:45:21.586Z,33.45
2023-04-05T07:47:48.283Z,30.02
2023-04-05T07:50:15.506Z,30.15
2023-04-05T07:52:44.768Z,24.42
2023-04-05T07:55:11.412Z,28.17
2023-04-05T07:57:38.070Z,33.15
2023-04-05T08:00:10.817Z,23.27
2023-04-05T08:02:37.694Z,23.30
2023-04-05T08:05:05.163Z,21.00
2023-04-05T08:07:31.932Z,27.63
2023-04-05T08:09:59.803Z,21.27
2023-04-05T08:12:27.126Z,18.75
2023-04-05T08:14:53.999Z,19.83
2023-04-05T08:17:20.748Z,19.88
2023-04-05T08:19:47.562Z,20.90
2023-04-05T08:22:16.496Z,20.75
2023-04-05T08:24:43.209Z,21.65
2023-04-05T08:27:09.922Z,19.23
2023-04-05T08:29:37.376Z,16.35
2023-04-05T08:32:04.499Z,24.27
2023-04-05T08:34:31.211Z,13.75
2023-04-05T08:37:00.938Z,18.20
2023-04-05T08:39:27.580Z,13.40
2023-04-05T08:42:06.261Z,13.93
2023-04-05T08:44:36.372Z,17.35
2023-04-05T08:47:03.232Z,12.07
2023-04-05T08:49:29.919Z,14.77
2023-04-05T08:51:59.194Z,13.45
2023-04-05T08:54:26.076Z,17.58
2023-04-05T08:56:54.584Z,12.25
2023-04-05T08:59:21.944Z,12.30
2023-04-05T09:01:50.205Z,13.70
2023-04-05T09:04:24.432Z,13.10
2023-04-05T09:06:52.287Z,11.77
2023-04-05T09:09:24.270Z,10.50
2023-04-05T09:11:51.172Z,9.25
2023-04-05T09:14:19.151Z,10.43
2023-04-05T09:16:46.178Z,11.27
2023-04-05T09:19:12.942Z,11.40
2023-04-05T09:21:59.989Z,14.80
2023-04-05T09:24:43.910Z,16.40
2023-04-05T09:27:20.456Z,12.73
2023-04-05T09:29:50.077Z,9.50
2023-04-05T09:32:20.503Z,12.00
2023-04-05T09:34:48.043Z,10.57
2023-04-05T09:37:19.923Z,11.95
2023-04-05T09:39:57.566Z,15.32
2023-04-05T09:42:24.656Z,12.15
2023-04-05T09:44:53.700Z,11.07
2023-04-05T09:47:31.458Z,9.80
2023-04-05T09:50:06.065Z,9.15
2023-04-05T09:52:32.945Z,11.30
2023-04-05T09:55:02.059Z,6.43
2023-04-05T09:57:33.256Z,10.73
2023-04-05T10:00:01.305Z,12.85
2023-04-05T10:02:39.591Z,16.38
2023-04-05T10:05:07.720Z,13.50
2023-04-05T10:07:35.398Z,13.18
2023-04-05T10:10:03.270Z,12.32
2023-04-05T10:12:32.514Z,12.77
2023-04-05T10:14:59.753Z,11.38
2023-04-05T10:17:39.100Z,13.32
2023-04-05T10:20:14.945Z,11.27
2023-04-05T10:22:52.397Z,14.30
2023-04-05T10:25:53.644Z,12.93
2023-04-05T10:28:37.491Z,7.25
2023-04-05T10:31:36.375Z,9.98
2023-04-05T10:34:11.181Z,11.27
2023-04-05T10:37:01.867Z,9.40
2023-04-05T10:39:33.524Z,10.48
2023-04-05T10:42:06.897Z,11.73
2023-04-05T10:44:36.234Z,10.77
2023-04-05T10:47:05.121Z,13.05
2023-04-05T10:49:37.862Z,9.25
2023-04-05T10:52:06.012Z,14.05
2023-04-05T10:54:37.367Z,10.38
2023-04-05T10:57:10.474Z,12.15
2023-04-05T10:59:43.509Z,8.43
2023-04-05T11:02:11.335Z,13.90
2023-04-05T11:04:41.702Z,13.40
2023-04-05T11:07:14.126Z,17.83
2023-04-05T11:09:53.598Z,16.35
2023-04-05T11:12:20.428Z,10.13
2023-04-05T11:14:47.177Z,14.40
2023-04-05T11:17:40.196Z,11.35
2023-04-05T11:20:11.820Z,9.80
2023-04-05T11:22:38.504Z,11.32
2023-04-05T11:25:06.407Z,8.88
2023-04-05T11:27:36.912Z,13.30
2023-04-05T11:30:05.446Z,11.88
2023-04-05T11:32:43.708Z,15.55
2023-04-05T11:35:25.740Z,13.00
2023-04-05T11:38:01.677Z,11.15
2023-04-05T11:40:31.936Z,11.30
2023-04-05T11:43:09.650Z,10.27
2023-04-05T11:45:39.079Z,12.10
2023-04-05T11:48:11.265Z,10.50
2023-04-05T11:50:39.733Z,13.60
2023-04-05T11:53:13.317Z,16.85
2023-04-05T11:55:51.077Z,11.00
2023-04-05T12:02:00.124Z,12.82
2023-04-05T12:04:26.759Z,12.48
2023-04-05T12:07:13.677Z,13.40
2023-04-05T18:41:00.037Z,29.83
2023-04-05T18:43:26.679Z,32.10
2023-04-05T18:45:56.154Z,25.67
2023-04-05T18:48:25.055Z,28.40
2023-04-05T18:50:53.801Z,23.48
2023-04-05T19:09:39.498Z,30.52
2023-04-05T19:12:06.336Z,31.60
2023-04-05T19:14:33.398Z,31.58
2023-04-05T19:36:14.991Z,33.13
2023-04-05T19:38:41.665Z,32.85
2023-04-05T19:41:08.310Z,29.80
2023-04-05T19:52:08.194Z,30.13
2023-04-05T19:54:36.546Z,32.60
2023-04-05T19:57:05.531Z,29.20
2023-04-05T20:52:05.182Z,29.52
2023-04-05T20:54:31.851Z,33.55
2023-04-05T20:56:58.524Z,33.92
2023-04-05T20:59:26.133Z,34.95
2023-04-05T21:09:37.850Z,32.47
2023-04-05T21:12:04.808Z,35.35
2023-04-05T21:14:31.503Z,36.47
2023-04-05T21:16:58.077Z,36.15
2023-04-05T21:19:24.857Z,37.53
2023-04-05T22:43:01.941Z,35.65
2023-04-05T22:45:28.707Z,49.33
2023-04-05T22:47:55.947Z,34.72
2023-04-05T22:50:22.617Z,37.28
2023-04-05T22:52:49.173Z,36.78
2023-04-05T22:55:15.935Z,37.65
2023-04-05T23:13:07.073Z,35.40
2023-04-05T23:15:33.812Z,37.78
2023-04-05T23:18:00.592Z,39.47
2023-04-05T23:20:27.206Z,36.55
2023-04-05T23:22:53.836Z,40.15
2023-04-05T23:48:27.192Z,38.78
2023-04-05T23:50:54.010Z,43.28
2023-04-05T23:53:20.880Z,33.92
2023-04-05T23:55:49.413Z,35.42
2023-04-05T23:58:16.046Z,31.88
